Time;durP1;ratioP1;P1;durP2;ratioP2;P2;SDS_P1;SDS_P2;PMS_P1;PMS_P2;Temp;Humidity;BMP_temperature;BMP_pressure;BME280_temperature;BME280_humidity;BME280_pressure;Samples;Min_cycle;Max_cycle;Signal;HPM_P1;HPM_P2
2023/01/21 00:00:22;;;;;;;11.43;5.80;;;;;;;-3.62;96.03;96565.88;5038103;28;20676;-69
2023/01/21 00:02:49;;;;;;;10.33;5.33;;;;;;;-3.63;95.81;96561.66;5038310;28;20223;-69
2023/01/21 00:05:15;;;;;;;12.43;6.00;;;;;;;-3.62;96.14;96563.31;5037034;28;20234;-69
2023/01/21 00:07:42;;;;;;;14.03;6.47;;;;;;;-3.58;96.55;96561.41;5038124;28;20221;-69
2023/01/21 00:10:09;;;;;;;11.63;5.83;;;;;;;-3.46;96.39;96571.03;5037476;28;20208;-69
2023/01/21 00:12:37;;;;;;;11.90;5.60;;;;;;;-3.42;93.84;96568.19;5037322;28;20207;-69
2023/01/21 00:15:04;;;;;;;14.83;5.10;;;;;;;-3.40;93.47;96568.94;5036768;28;20931;-69
2023/01/21 00:17:34;;;;;;;15.60;7.20;;;;;;;-3.37;93.72;96565.38;5037593;28;20205;-68
2023/01/21 00:20:01;;;;;;;9.37;5.53;;;;;;;-3.41;93.65;96569.00;5037530;28;20206;-68
2023/01/21 00:22:27;;;;;;;20.43;7.23;;;;;;;-3.38;93.77;96569.66;5038241;28;20222;-69
2023/01/21 00:24:54;;;;;;;23.30;6.93;;;;;;;-3.57;93.88;96574.19;5036911;28;21299;-70
2023/01/21 00:27:20;;;;;;;12.57;5.50;;;;;;;-3.59;93.47;96577.75;5037958;28;20211;-69
2023/01/21 00:29:48;;;;;;;12.40;6.17;;;;;;;-3.59;92.80;96570.88;5037560;28;20292;-69
2023/01/21 00:32:15;;;;;;;12.00;4.93;;;;;;;-3.88;94.75;96578.53;5038106;28;20235;-69
2023/01/21 00:34:42;;;;;;;11.30;6.00;;;;;;;-3.73;96.26;96576.88;5036268;28;20206;-69
2023/01/21 00:37:09;;;;;;;9.23;4.67;;;;;;;-3.67;95.54;96579.09;5036932;28;20206;-69
2023/01/21 00:39:35;;;;;;;10.53;5.23;;;;;;;-3.61;95.02;96575.28;5037109;28;20223;-69
2023/01/21 00:42:03;;;;;;;9.77;4.90;;;;;;;-3.57;94.10;96574.19;5037174;28;20214;-69
2023/01/21 00:44:29;;;;;;;10.37;5.30;;;;;;;-3.62;92.18;96575.38;5036015;28;20236;-68
2023/01/21 00:46:57;;;;;;;11.73;5.33;;;;;;;-3.64;93.45;96581.50;5037591;28;20223;-69
2023/01/21 00:49:24;;;;;;;10.20;5.13;;;;;;;-3.70;94.11;96574.97;5036341;28;20733;-69
2023/01/21 00:51:50;;;;;;;10.40;5.40;;;;;;;-3.63;93.15;96578.03;5037061;28;20221;-69
2023/01/21 00:54:17;;;;;;;10.70;5.20;;;;;;;-3.66;92.93;96576.44;5036400;28;20209;-70
2023/01/21 00:56:43;;;;;;;15.87;5.63;;;;;;;-3.70;93.28;96582.69;5037270;28;20213;-70
2023/01/21 00:59:10;;;;;;;7.60;3.77;;;;;;;-3.60;91.83;96587.25;5035876;28;20239;-70
2023/01/21 01:01:37;;;;;;;11.37;4.97;;;;;;;-3.64;90.16;96584.09;5016682;28;20222;-70
2023/01/21 01:04:05;;;;;;;11.00;5.17;;;;;;;-3.64;90.45;96589.22;5016805;28;20223;-69
2023/01/21 01:06:33;;;;;;;13.13;5.00;;;;;;;-3.71;90.71;96582.78;5017285;28;20236;-69
2023/01/21 01:09:00;;;;;;;10.57;5.77;;;;;;;-3.90;92.46;96590.63;5016729;28;20699;-70
2023/01/21 01:11:27;;;;;;;14.17;4.97;;;;;;;-3.77;92.77;96596.78;5016813;28;20214;-70
2023/01/21 01:13:54;;;;;;;15.57;4.83;;;;;;;-3.69;92.52;96593.78;5016517;28;20206;-70
2023/01/21 01:16:21;;;;;;;8.87;5.13;;;;;;;-3.70;91.80;96603.28;5016889;28;20705;-69
2023/01/21 01:18:48;;;;;;;13.57;5.20;;;;;;;-3.78;92.32;96595.16;5017281;28;20237;-69
2023/01/21 01:21:18;;;;;;;11.73;5.27;;;;;;;-3.59;91.41;96596.63;5016966;28;20237;-70
2023/01/21 01:23:45;;;;;;;13.00;4.97;;;;;;;-3.67;91.40;96597.13;5016984;28;20210;-70
2023/01/21 01:26:14;;;;;;;15.93;4.77;;;;;;;-3.70;92.07;96594.72;5016917;28;20224;-70
2023/01/21 01:28:41;;;;;;;10.73;4.77;;;;;;;-3.80;92.58;96606.44;5017025;28;20233;-69
2023/01/21 01:31:09;;;;;;;13.77;5.43;;;;;;;-3.76;92.58;96602.78;5016670;28;20213;-70
2023/01/21 01:33:36;;;;;;;10.80;4.90;;;;;;;-3.81;92.83;96607.34;5016538;28;20703;-69
2023/01/21 01:36:04;;;;;;;10.17;5.17;;;;;;;-3.89;93.33;96612.91;5016956;28;20229;-70
2023/01/21 01:38:32;;;;;;;7.50;4.97;;;;;;;-3.82;93.64;96610.81;5016711;28;20235;-69
2023/01/21 01:40:58;;;;;;;14.43;6.83;;;;;;;-3.88;94.34;96612.00;5016960;28;20210;-69
2023/01/21 01:43:26;;;;;;;14.67;6.13;;;;;;;-3.82;93.78;96614.22;5016572;28;20214;-69
2023/01/21 01:45:53;;;;;;;13.70;5.50;;;;;;;-4.00;94.54;96604.09;5015975;28;20231;-69
2023/01/21 01:48:26;;;;;;;12.57;6.57;;;;;;;-3.95;96.08;96608.06;5016885;28;20233;-69
2023/01/21 01:50:54;;;;;;;16.20;6.83;;;;;;;-3.89;95.49;96609.50;5017215;28;20687;-70
2023/01/21 01:53:21;;;;;;;18.53;6.57;;;;;;;-3.95;96.20;96610.63;5016279;28;20210;-71
2023/01/21 01:55:49;;;;;;;15.47;6.07;;;;;;;-3.81;95.54;96620.22;5016536;28;20202;-69
2023/01/21 01:58:19;;;;;;;12.37;5.47;;;;;;;-3.82;95.81;96611.63;5017238;28;20247;-69
2023/01/21 02:00:46;;;;;;;11.30;6.07;;;;;;;-3.76;96.10;96616.47;5016729;28;20211;-69
2023/01/21 02:05:57;;;;;;;15.47;6.73;;;;;;;-3.63;95.48;96611.50;5020967;28;20237;-70
2023/01/21 02:08:24;;;;;;;14.83;7.27;;;;;;;-3.58;95.25;96620.63;5020324;28;20226;-69
2023/01/21 02:10:54;;;;;;;17.10;6.27;;;;;;;-3.54;95.30;96614.38;5019853;28;20291;-69
2023/01/21 02:13:22;;;;;;;18.87;6.23;;;;;;;-3.47;95.14;96613.16;5020123;28;20213;-69
2023/01/21 02:16:00;;;;;;;15.30;6.33;;;;;;;-3.42;95.16;96618.88;5019501;28;20213;-70
2023/01/21 02:18:35;;;;;;;18.77;7.27;;;;;;;-3.36;94.59;96614.22;5020154;28;20225;-70
2023/01/21 02:21:30;;;;;;;17.53;7.33;;;;;;;-3.33;93.63;96614.03;5020025;28;20585;-70
2023/01/21 02:24:21;;;;;;;15.33;6.33;;;;;;;-3.38;92.72;96615.22;4993934;28;20207;-69
2023/01/21 02:27:18;;;;;;;15.17;5.90;;;;;;;-3.46;93.32;96607.91;5019801;28;20237;-70
2023/01/21 02:30:24;;;;;;;16.03;6.57;;;;;;;-3.37;92.87;96620.28;5020208;28;20217;-68
2023/01/21 02:33:20;;;;;;;14.17;6.43;;;;;;;-3.43;92.80;96617.22;5019160;28;20203;-70
2023/01/21 02:35:54;;;;;;;13.83;5.63;;;;;;;-3.41;92.74;96621.38;5019291;28;20211;-69
2023/01/21 02:38:29;;;;;;;10.50;5.60;;;;;;;-3.49;92.57;96620.97;5019858;28;20228;-69
2023/01/21 02:41:06;;;;;;;15.77;5.53;;;;;;;-3.53;91.83;96613.47;5019926;28;20570;-69
2023/01/21 02:43:39;;;;;;;20.67;8.23;;;;;;;-3.59;93.36;96617.22;5019173;28;20213;-68
2023/01/21 02:46:13;;;;;;;14.77;7.00;;;;;;;-3.69;93.57;96622.13;5019691;28;20227;-69
2023/01/21 02:48:47;;;;;;;27.53;7.43;;;;;;;-3.72;93.93;96630.03;5019183;28;20228;-70
2023/01/21 02:51:14;;;;;;;15.27;6.70;;;;;;;-3.78;93.85;96623.47;5019678;28;20207;-70
2023/01/21 02:53:40;;;;;;;16.43;6.70;;;;;;;-3.85;94.41;96629.03;5018555;28;20939;-69
2023/01/21 02:56:12;;;;;;;17.33;7.13;;;;;;;-3.74;94.87;96624.97;5019445;28;20207;-70
2023/01/21 02:58:43;;;;;;;17.13;7.17;;;;;;;-3.75;94.49;96625.03;5018626;28;20237;-70
2023/01/21 03:01:22;;;;;;;14.00;6.73;;;;;;;-3.78;93.87;96625.19;5019218;28;20218;-70
2023/01/21 03:04:13;;;;;;;13.47;6.10;;;;;;;-3.74;94.71;96627.53;5018254;28;20419;-69
2023/01/21 03:06:52;;;;;;;18.67;7.77;;;;;;;-3.74;95.03;96622.38;5019443;28;20228;-69
2023/01/21 03:09:23;;;;;;;10.87;4.73;;;;;;;-3.63;93.67;96614.88;5019200;28;20234;-69
2023/01/21 03:12:01;;;;;;;16.53;6.60;;;;;;;-3.78;93.08;96620.03;5019363;28;20208;-69
2023/01/21 03:17:27;;;;;;;14.07;7.70;;;;;;;-3.82;93.50;96621.94;5020456;28;20680;-69
2023/01/21 03:20:03;;;;;;;15.87;6.60;;;;;;;-3.78;94.18;96617.47;5018086;28;20214;-70
2023/01/21 03:22:35;;;;;;;18.87;8.00;;;;;;;-3.76;94.22;96619.03;5018546;28;20210;-69
2023/01/21 03:25:03;;;;;;;15.83;6.17;;;;;;;-3.81;93.64;96623.59;5018433;28;20209;-69
2023/01/21 03:27:31;;;;;;;15.53;6.80;;;;;;;-3.73;92.09;96624.03;5018556;28;20225;-70
2023/01/21 03:30:02;;;;;;;23.20;7.30;;;;;;;-3.74;91.82;96629.25;5018841;28;20207;-70
2023/01/21 03:32:31;;;;;;;16.57;7.03;;;;;;;-3.82;93.61;96623.69;5019004;28;20217;-68
2023/01/21 03:35:00;;;;;;;19.50;7.93;;;;;;;-3.72;94.00;96622.28;5017768;28;20205;-71
2023/01/21 03:37:32;;;;;;;14.33;6.27;;;;;;;-3.76;94.70;96613.09;5018542;28;20574;-69
2023/01/21 03:40:06;;;;;;;13.80;7.07;;;;;;;-3.58;94.48;96618.91;5018283;28;20203;-70
2023/01/21 03:42:33;;;;;;;7.17;4.87;;;;;;;-3.53;94.00;96618.63;5018324;28;20987;-70
2023/01/21 03:45:00;;;;;;;17.87;7.63;;;;;;;-3.52;94.46;96615.97;5015436;28;20220;-70
2023/01/21 03:47:30;;;;;;;18.80;5.83;;;;;;;-3.39;94.93;96610.97;5018194;28;20484;-69
2023/01/21 03:50:03;;;;;;;13.20;6.43;;;;;;;-3.28;94.77;96612.03;5018555;28;20214;-69
2023/01/21 03:52:30;;;;;;;11.90;5.37;;;;;;;-3.26;94.28;96605.06;5018037;28;20202;-69
2023/01/21 03:54:56;;;;;;;13.80;6.03;;;;;;;-3.26;94.67;96611.94;5017595;28;20682;-69
2023/01/21 03:57:23;;;;;;;16.57;7.30;;;;;;;-3.24;94.91;96608.38;5018117;28;20221;-69
2023/01/21 03:59:49;;;;;;;10.63;5.73;;;;;;;-3.21;95.87;96617.69;5017964;28;20209;-69
2023/01/21 04:02:18;;;;;;;18.80;8.03;;;;;;;-3.19;96.07;96605.56;5018016;28;20207;-69
2023/01/21 04:04:45;;;;;;;12.70;6.10;;;;;;;-3.17;97.36;96609.72;5018965;28;20207;-69
2023/01/21 04:07:13;;;;;;;16.63;7.63;;;;;;;-3.05;97.63;96614.16;5017837;28;20234;-70
2023/01/21 04:09:40;;;;;;;13.57;7.53;;;;;;;-3.07;98.02;96615.16;5018075;28;20198;-69
2023/01/21 04:12:06;;;;;;;19.73;7.50;;;;;;;-2.97;97.73;96609.41;5018261;28;20213;-69
2023/01/21 04:14:33;;;;;;;15.70;7.50;;;;;;;-2.92;97.43;96607.38;5017480;28;20203;-70
2023/01/21 04:16:59;;;;;;;18.63;6.93;;;;;;;-2.81;96.64;96605.84;5017994;28;20206;-70
2023/01/21 04:19:26;;;;;;;15.80;7.53;;;;;;;-2.72;96.70;96619.97;5018605;28;20231;-69
2023/01/21 04:21:52;;;;;;;11.57;6.33;;;;;;;-2.73;96.65;96615.72;5017231;28;20216;-69
2023/01/21 04:24:20;;;;;;;10.20;5.33;;;;;;;-2.59;96.95;96613.19;5017267;28;20206;-70
2023/01/21 04:26:46;;;;;;;17.00;6.93;;;;;;;-2.63;97.00;96617.69;5018244;28;20234;-69
2023/01/21 04:29:13;;;;;;;16.83;7.27;;;;;;;-2.73;96.92;96616.53;5017359;28;20233;-70
2023/01/21 04:31:39;;;;;;;14.43;5.53;;;;;;;-2.71;97.47;96613.88;5017182;28;20204;-70
2023/01/21 04:34:06;;;;;;;17.20;6.63;;;;;;;-2.63;97.42;96619.44;5017590;28;20238;-69
2023/01/21 04:36:32;;;;;;;13.50;5.47;;;;;;;-2.57;96.69;96616.50;5017509;28;20201;-70
2023/01/21 04:38:59;;;;;;;18.13;6.13;;;;;;;-2.60;96.41;96619.25;5017330;28;20231;-71
2023/01/21 04:41:27;;;;;;;16.70;6.80;;;;;;;-2.54;96.97;96616.34;5017970;28;20199;-69
2023/01/21 04:43:53;;;;;;;25.53;7.00;;;;;;;-2.57;96.74;96621.66;5016559;28;20208;-70
2023/01/21 04:46:20;;;;;;;11.80;5.50;;;;;;;-2.57;97.23;96621.66;5017575;28;20669;-70
2023/01/21 04:48:46;;;;;;;11.93;6.77;;;;;;;-2.59;97.45;96620.91;5017535;28;20605;-70
2023/01/21 04:51:13;;;;;;;14.30;6.27;;;;;;;-2.55;97.67;96620.63;5017823;28;20215;-70
2023/01/21 04:53:39;;;;;;;16.03;6.43;;;;;;;-2.64;97.54;96620.34;5016545;28;20202;-70
2023/01/21 04:56:06;;;;;;;11.73;6.70;;;;;;;-2.53;97.71;96623.13;5017452;28;20211;-69
2023/01/21 04:58:34;;;;;;;11.47;5.20;;;;;;;-2.41;98.07;96624.09;5017081;28;20726;-70
2023/01/21 05:01:01;;;;;;;15.20;6.30;;;;;;;-2.50;99.57;96623.78;5018232;28;20209;-70
2023/01/21 05:03:27;;;;;;;22.60;5.67;;;;;;;-2.47;100.00;96625.34;5016435;28;20672;-70
2023/01/21 05:05:54;;;;;;;22.87;7.53;;;;;;;-2.41;100.00;96626.66;5016952;28;20680;-70
2023/01/21 05:08:20;;;;;;;23.63;6.00;;;;;;;-2.57;100.00;96624.22;5016970;28;20255;-69
2023/01/21 05:10:47;;;;;;;13.67;6.03;;;;;;;-2.80;100.00;96623.00;5017477;28;20246;-69
2023/01/21 05:13:13;;;;;;;20.50;7.50;;;;;;;-2.76;100.00;96632.22;5017276;28;20222;-70
2023/01/21 05:15:41;;;;;;;15.67;5.17;;;;;;;-2.60;100.00;96632.97;5016980;28;20293;-70
2023/01/21 05:18:07;;;;;;;23.07;7.07;;;;;;;-2.61;100.00;96633.06;5016606;28;20225;-70
2023/01/21 05:20:34;;;;;;;19.97;7.60;;;;;;;-2.59;100.00;96620.91;5017278;28;20208;-69
2023/01/21 05:23:00;;;;;;;16.47;7.67;;;;;;;-2.37;100.00;96624.72;5017127;28;20206;-69
2023/01/21 05:25:27;;;;;;;20.03;6.57;;;;;;;-2.35;100.00;96618.53;5016180;28;20222;-69
2023/01/21 05:27:54;;;;;;;16.00;7.00;;;;;;;-2.34;100.00;96620.22;5017468;28;20233;-69
2023/01/21 05:30:21;;;;;;;25.43;8.33;;;;;;;-2.35;100.00;96618.53;5017625;28;20212;-69
2023/01/21 05:32:51;;;;;;;16.20;6.43;;;;;;;-2.19;100.00;96614.16;5016983;28;20208;-69
2023/01/21 05:35:19;;;;;;;18.77;6.67;;;;;;;-2.49;100.00;96619.47;5015896;28;20230;-69
2023/01/21 05:37:46;;;;;;;21.87;7.07;;;;;;;-2.42;100.00;96625.00;5020693;28;20219;-70
2023/01/21 05:40:13;;;;;;;19.63;6.87;;;;;;;-2.30;100.00;96633.78;5021875;28;20951;-70
2023/01/21 05:42:40;;;;;;;12.57;5.80;;;;;;;-2.53;100.00;96626.56;5020945;28;20209;-69
2023/01/21 05:45:07;;;;;;;22.10;5.57;;;;;;;-2.34;100.00;96627.94;5019312;28;20215;-70
2023/01/21 05:47:34;;;;;;;14.13;6.43;;;;;;;-2.40;100.00;96635.22;5020894;28;20231;-70
2023/01/21 05:50:01;;;;;;;15.23;6.87;;;;;;;-2.26;100.00;96640.41;5021008;28;20207;-69
2023/01/21 05:52:28;;;;;;;14.67;5.80;;;;;;;-2.23;100.00;96638.50;5020729;28;20738;-69
2023/01/21 05:54:55;;;;;;;14.80;6.87;;;;;;;-2.56;100.00;96641.38;5019746;28;20217;-70
2023/01/21 05:57:21;;;;;;;22.53;6.00;;;;;;;-2.50;100.00;96634.09;5021275;28;20958;-69
2023/01/21 05:59:48;;;;;;;17.17;6.20;;;;;;;-2.24;100.00;96635.97;5020062;28;20210;-69
2023/01/21 06:02:14;;;;;;;22.57;6.53;;;;;;;-2.23;100.00;96641.06;5020801;28;21357;-70
2023/01/21 06:04:40;;;;;;;22.90;7.47;;;;;;;-2.46;100.00;96642.50;5019248;28;20290;-69
2023/01/21 06:07:08;;;;;;;16.37;6.57;;;;;;;-2.26;100.00;96641.22;5020495;28;20236;-70
2023/01/21 06:09:35;;;;;;;13.63;5.93;;;;;;;-2.26;100.00;96653.31;5020216;28;20718;-70
2023/01/21 06:12:01;;;;;;;18.30;5.03;;;;;;;-2.24;100.00;96648.88;5020604;28;20212;-70
2023/01/21 06:14:28;;;;;;;19.57;7.13;;;;;;;-2.24;100.00;96652.31;5019402;28;20211;-70
2023/01/21 06:16:54;;;;;;;22.57;7.87;;;;;;;-2.23;100.00;96647.97;5020046;28;20224;-70
2023/01/21 06:19:21;;;;;;;15.67;6.57;;;;;;;-2.29;100.00;96649.16;5019444;28;20231;-70
2023/01/21 06:21:47;;;;;;;19.27;6.43;;;;;;;-2.09;100.00;96659.13;5020622;28;20233;-69
2023/01/21 06:24:15;;;;;;;15.43;5.73;;;;;;;-2.15;100.00;96662.09;5018950;28;20615;-70
2023/01/21 06:26:42;;;;;;;16.43;6.47;;;;;;;-2.09;100.00;96655.72;5019809;28;20205;-71
2023/01/21 06:29:08;;;;;;;29.23;7.07;;;;;;;-2.02;100.00;96657.84;5019647;28;21101;-70
2023/01/21 06:31:34;;;;;;;18.40;6.23;;;;;;;-2.08;100.00;96655.63;5019918;28;20208;-69
2023/01/21 06:34:01;;;;;;;13.23;5.00;;;;;;;-2.07;100.00;96661.63;5018841;28;20205;-69
2023/01/21 06:36:27;;;;;;;22.83;7.00;;;;;;;-1.97;100.00;96658.41;5019891;28;20204;-69
2023/01/21 06:38:54;;;;;;;17.03;5.27;;;;;;;-2.05;100.00;96659.78;5020152;28;20598;-70
2023/01/21 06:41:21;;;;;;;22.00;8.07;;;;;;;-2.06;100.00;96665.84;5019603;28;21124;-68
2023/01/21 06:43:48;;;;;;;25.97;6.80;;;;;;;-2.00;100.00;96662.91;5019498;28;20209;-70
2023/01/21 06:46:14;;;;;;;19.40;6.33;;;;;;;-1.98;100.00;96668.81;5019386;28;20204;-69
2023/01/21 06:48:42;;;;;;;21.17;7.27;;;;;;;-2.12;100.00;96669.63;5019346;28;20230;-69
2023/01/21 06:51:08;;;;;;;16.97;6.07;;;;;;;-2.21;100.00;96672.75;5019691;28;20306;-69
2023/01/21 06:53:35;;;;;;;23.30;7.30;;;;;;;-1.97;100.00;96675.63;5018999;28;20204;-69
2023/01/21 06:56:01;;;;;;;15.93;5.43;;;;;;;-2.22;100.00;96673.66;5018912;28;20211;-69
2023/01/21 06:58:29;;;;;;;19.67;6.57;;;;;;;-2.13;100.00;96680.88;5019585;28;20243;-69
2023/01/21 07:00:56;;;;;;;23.13;8.27;;;;;;;-2.12;100.00;96679.97;5019558;28;20224;-68
2023/01/21 07:03:22;;;;;;;27.13;7.23;;;;;;;-2.20;100.00;96681.31;5019143;28;20292;-69
2023/01/21 07:05:49;;;;;;;19.83;7.57;;;;;;;-2.16;100.00;96685.41;5019473;28;20212;-68
2023/01/21 07:08:15;;;;;;;21.00;7.60;;;;;;;-2.00;100.00;96684.38;5018966;28;20244;-68
2023/01/21 07:10:42;;;;;;;18.13;6.20;;;;;;;-2.14;100.00;96697.31;5018939;28;20196;-69
2023/01/21 07:13:08;;;;;;;15.30;4.77;;;;;;;-2.20;100.00;96695.06;5019835;28;20502;-69
2023/01/21 07:15:36;;;;;;;22.57;7.80;;;;;;;-2.09;100.00;96691.84;5018726;28;20204;-68
2023/01/21 07:18:03;;;;;;;18.97;6.70;;;;;;;-2.01;100.00;96690.50;5018298;28;20797;-68
2023/01/21 07:20:29;;;;;;;21.23;6.90;;;;;;;-2.04;100.00;96690.66;5019179;28;20703;-69
2023/01/21 07:22:56;;;;;;;20.30;8.00;;;;;;;-1.83;100.00;96699.72;5019104;28;20207;-69
2023/01/21 07:25:22;;;;;;;25.00;7.80;;;;;;;-1.84;100.00;96692.91;5018040;28;20670;-69
2023/01/21 07:27:48;;;;;;;21.93;6.87;;;;;;;-1.91;100.00;96701.91;5018544;28;20314;-69
2023/01/21 07:30:18;;;;;;;24.20;9.03;;;;;;;-1.69;100.00;96702.31;5019382;28;20208;-69
2023/01/21 07:32:47;;;;;;;24.63;8.20;;;;;;;-1.63;100.00;96692.44;5015398;28;20215;-69
2023/01/21 07:35:13;;;;;;;25.70;8.73;;;;;;;-1.64;100.00;96705.44;5016233;28;20220;-68
2023/01/21 07:37:40;;;;;;;23.67;8.30;;;;;;;-1.67;100.00;96705.63;5017902;28;20405;-69
2023/01/21 07:40:08;;;;;;;27.93;9.27;;;;;;;-1.52;100.00;96709.88;5017965;28;20210;-69
2023/01/21 07:42:35;;;;;;;24.17;9.47;;;;;;;-1.48;100.00;96706.16;5017170;28;20211;-68
2023/01/21 07:45:02;;;;;;;23.63;9.17;;;;;;;-1.46;100.00;96706.91;5017094;28;20209;-69
2023/01/21 07:47:29;;;;;;;24.27;7.90;;;;;;;-1.57;100.00;96706.72;5017551;28;20216;-69
2023/01/21 07:49:57;;;;;;;22.67;7.47;;;;;;;-1.43;100.00;96704.13;5017663;28;20216;-68
2023/01/21 07:52:23;;;;;;;21.30;7.00;;;;;;;-1.31;100.00;96704.22;5018051;28;20203;-69
2023/01/21 07:54:49;;;;;;;28.30;7.97;;;;;;;-1.17;100.00;96699.84;5017267;28;20204;-69
2023/01/21 07:57:16;;;;;;;22.67;8.00;;;;;;;-1.07;100.00;96706.09;5017598;28;20202;-70
2023/01/21 07:59:42;;;;;;;23.13;7.80;;;;;;;-1.17;100.00;96701.59;5017077;28;20209;-69
2023/01/21 08:02:10;;;;;;;19.77;7.83;;;;;;;-1.02;100.00;96704.06;5017745;28;20209;-69
2023/01/21 08:04:36;;;;;;;26.80;8.67;;;;;;;-1.02;100.00;96704.06;5016828;28;21040;-69
2023/01/21 08:07:08;;;;;;;19.60;7.47;;;;;;;-0.94;100.00;96704.41;5017910;28;20220;-69
2023/01/21 08:09:35;;;;;;;25.87;8.30;;;;;;;-0.98;100.00;96697.75;5017789;28;20233;-69
2023/01/21 08:12:02;;;;;;;19.40;7.40;;;;;;;-0.93;100.00;96695.72;5017715;28;20212;-69
2023/01/21 08:14:28;;;;;;;25.33;8.43;;;;;;;-0.94;100.00;96703.56;5016450;28;20205;-69
2023/01/21 08:16:55;;;;;;;29.23;7.87;;;;;;;-0.83;100.00;96707.13;5017352;28;20655;-69
2023/01/21 08:19:21;;;;;;;26.97;8.77;;;;;;;-0.86;100.00;96698.75;5017514;28;20307;-69
2023/01/21 08:21:48;;;;;;;24.93;8.53;;;;;;;-0.90;100.00;96699.88;5018118;28;20707;-69
2023/01/21 08:24:16;;;;;;;23.77;9.00;;;;;;;-0.69;100.00;96698.50;5017769;28;21117;-70
2023/01/21 08:26:42;;;;;;;21.53;7.83;;;;;;;-0.68;100.00;96711.31;5018106;28;21147;-69
2023/01/21 08:29:09;;;;;;;27.87;8.63;;;;;;;-0.61;100.00;96702.25;5016899;28;20228;-69
2023/01/21 08:31:35;;;;;;;24.83;8.57;;;;;;;-0.61;100.00;96710.03;5018112;28;20198;-69
2023/01/21 08:34:02;;;;;;;30.00;8.40;;;;;;;-0.58;100.00;96702.03;5017243;28;20210;-69
2023/01/21 08:36:28;;;;;;;27.70;8.30;;;;;;;-0.56;100.00;96713.09;5017020;28;20229;-69
2023/01/21 08:38:57;;;;;;;26.63;8.77;;;;;;;-0.50;100.00;96710.13;5016806;28;20237;-68
2023/01/21 08:41:25;;;;;;;18.03;7.67;;;;;;;-0.36;100.00;96712.66;5017832;28;20212;-73
2023/01/21 08:43:51;;;;;;;30.00;8.97;;;;;;;-0.47;100.00;96715.94;5018141;28;20209;-69
2023/01/21 08:46:18;;;;;;;23.20;9.17;;;;;;;-0.39;100.00;96715.47;5018097;28;20700;-69
2023/01/21 08:48:44;;;;;;;33.60;9.30;;;;;;;-0.32;100.00;96711.53;5018002;28;20234;-69
2023/01/21 08:51:10;;;;;;;31.90;9.30;;;;;;;-0.21;100.00;96714.25;5017595;28;20197;-69
2023/01/21 08:53:37;;;;;;;18.33;7.47;;;;;;;-0.20;100.00;96716.75;5015829;28;20209;-69
2023/01/21 08:56:04;;;;;;;19.27;7.83;;;;;;;-0.17;100.00;96724.28;5017399;28;20207;-69
2023/01/21 08:58:33;;;;;;;24.73;8.50;;;;;;;-0.07;100.00;96719.34;5017222;28;20237;-69
2023/01/21 09:01:06;;;;;;;25.90;8.43;;;;;;;-0.06;100.00;96728.75;5016351;28;20655;-69
2023/01/21 09:03:32;;;;;;;30.63;10.30;;;;;;;-0.23;100.00;96729.91;5016797;28;20263;-69
2023/01/21 09:06:00;;;;;;;28.83;9.50;;;;;;;-0.31;100.00;96726.13;5015835;28;20205;-69
2023/01/21 09:08:26;;;;;;;23.60;8.53;;;;;;;-0.17;100.00;96733.84;5016850;28;20237;-69
2023/01/21 09:11:04;;;;;;;30.70;9.10;;;;;;;-0.33;100.00;96735.75;5016476;28;20207;-69
2023/01/21 09:13:34;;;;;;;25.70;10.10;;;;;;;-0.38;100.00;96736.06;5016683;28;20216;-69
2023/01/21 09:16:01;;;;;;;19.77;8.97;;;;;;;-0.39;100.00;96731.00;5016901;28;20241;-69
2023/01/21 09:18:27;;;;;;;19.67;7.10;;;;;;;-0.42;100.00;96736.34;5016481;28;20570;-69
2023/01/21 09:20:54;;;;;;;16.27;5.83;;;;;;;0.28;100.00;96726.41;5016856;28;20198;-69
2023/01/21 09:23:27;;;;;;;18.00;6.17;;;;;;;2.41;100.00;96720.16;5017106;28;20206;-69
2023/01/21 09:25:55;;;;;;;20.40;8.73;;;;;;;1.86;100.00;96716.59;5016681;28;20622;-69
2023/01/21 09:28:22;;;;;;;21.83;8.90;;;;;;;1.39;95.27;96726.19;5016480;28;20235;-69
2023/01/21 09:30:56;;;;;;;27.67;8.90;;;;;;;0.69;98.98;96727.84;5015449;28;20689;-69
2023/01/21 09:33:23;;;;;;;17.73;7.30;;;;;;;-0.04;100.00;96740.69;5017334;28;20289;-69
2023/01/21 09:35:53;;;;;;;21.00;7.47;;;;;;;-0.26;100.00;96742.19;5015210;28;20952;-69
2023/01/21 09:38:19;;;;;;;20.73;7.87;;;;;;;-0.36;100.00;96741.94;5016047;28;20225;-69
2023/01/21 09:40:46;;;;;;;14.17;5.87;;;;;;;-0.30;100.00;96738.97;5016492;28;20206;-70
2023/01/21 09:43:17;;;;;;;20.37;7.70;;;;;;;-0.15;100.00;96744.91;5016875;28;20202;-69
2023/01/21 09:45:45;;;;;;;15.40;5.67;;;;;;;-0.39;100.00;96749.09;5015036;28;20212;-69
2023/01/21 09:48:22;;;;;;;12.17;5.83;;;;;;;-0.42;100.00;96746.69;5016527;28;20229;-69
2023/01/21 09:50:50;;;;;;;18.30;6.10;;;;;;;-0.13;100.00;96745.66;5015661;28;20581;-69
2023/01/21 09:53:27;;;;;;;20.27;7.27;;;;;;;0.03;100.00;96745.34;5016223;28;20223;-69
2023/01/21 09:55:57;;;;;;;18.77;6.60;;;;;;;-0.26;100.00;96747.38;5016046;28;20695;-69
2023/01/21 09:58:30;;;;;;;26.70;7.87;;;;;;;0.00;99.79;96742.97;5016387;28;20230;-69
2023/01/21 10:01:02;;;;;;;23.73;7.33;;;;;;;0.11;100.00;96735.31;5016339;28;20214;-69
2023/01/21 10:03:38;;;;;;;18.57;6.70;;;;;;;0.01;100.00;96734.28;5016473;28;20565;-69
2023/01/21 10:06:13;;;;;;;22.93;6.50;;;;;;;-0.24;100.00;96737.75;5016550;28;21149;-69
2023/01/21 10:09:15;;;;;;;14.47;6.77;;;;;;;0.03;100.00;96729.81;5015964;28;20225;-69
2023/01/21 10:12:03;;;;;;;19.37;6.93;;;;;;;0.04;99.51;96718.53;5010845;28;20214;-69
2023/01/21 10:14:50;;;;;;;22.37;6.50;;;;;;;-0.21;100.00;96727.19;5015336;28;20637;-69
2023/01/21 10:17:25;;;;;;;18.70;6.27;;;;;;;0.05;100.00;96729.72;5016266;28;20685;-69
2023/01/21 10:19:57;;;;;;;14.80;5.83;;;;;;;0.07;99.46;96726.09;5016728;28;20206;-69
2023/01/21 10:22:27;;;;;;;20.17;7.57;;;;;;;-0.12;100.00;96731.78;5016595;28;20209;-69
2023/01/21 10:24:59;;;;;;;17.57;7.20;;;;;;;0.16;99.84;96716.88;5019559;28;20587;-69
2023/01/21 10:27:27;;;;;;;22.23;5.83;;;;;;;0.06;99.41;96727.03;5019425;28;20236;-68
2023/01/21 10:29:59;;;;;;;21.73;7.57;;;;;;;0.10;99.20;96722.47;5019954;28;20241;-69
2023/01/21 10:32:27;;;;;;;22.20;6.73;;;;;;;0.14;98.21;96719.56;5019938;28;20209;-69
2023/01/21 10:34:57;;;;;;;22.03;6.67;;;;;;;0.11;99.29;96724.13;5019064;28;20209;-69
2023/01/21 10:37:32;;;;;;;19.47;6.00;;;;;;;0.10;98.41;96725.91;5019681;28;20210;-69
2023/01/21 10:40:09;;;;;;;15.43;6.80;;;;;;;0.25;98.31;96721.44;5019990;28;20266;-69
2023/01/21 10:42:50;;;;;;;19.17;7.40;;;;;;;0.10;97.96;96712.09;5019296;28;20798;-68
2023/01/21 10:45:27;;;;;;;14.20;5.60;;;;;;;0.27;98.41;96719.59;5018863;28;21124;-69
2023/01/21 10:48:00;;;;;;;21.97;7.90;;;;;;;0.33;98.90;96712.22;5020345;28;20245;-69
2023/01/21 10:50:38;;;;;;;20.97;7.20;;;;;;;0.41;97.48;96712.53;5018701;28;20992;-68
2023/01/21 10:53:13;;;;;;;19.93;7.50;;;;;;;0.40;98.20;96710.88;5018524;28;20198;-69
2023/01/21 10:55:48;;;;;;;14.83;5.33;;;;;;;0.35;97.60;96712.94;5019133;28;20223;-69
2023/01/21 10:58:24;;;;;;;17.47;6.07;;;;;;;0.23;100.00;96710.34;5018545;28;20233;-69
2023/01/21 11:00:52;;;;;;;23.33;5.97;;;;;;;0.03;99.62;96711.69;5018819;28;20620;-69
2023/01/21 11:03:30;;;;;;;17.20;7.17;;;;;;;0.18;99.13;96705.47;5018677;28;20276;-68
2023/01/21 11:06:01;;;;;;;18.97;6.97;;;;;;;0.45;99.51;96701.00;5017611;28;20205;-69
2023/01/21 11:08:28;;;;;;;29.57;7.53;;;;;;;0.09;99.02;96710.47;5018845;28;20261;-69
2023/01/21 11:10:55;;;;;;;21.40;6.60;;;;;;;0.34;99.87;96693.13;5018707;28;20209;-68
2023/01/21 11:13:22;;;;;;;19.83;7.17;;;;;;;0.53;100.00;96700.50;5019151;28;20241;-70
2023/01/21 11:15:52;;;;;;;26.60;8.13;;;;;;;0.64;98.84;96698.81;5018138;28;20297;-67
2023/01/21 11:18:28;;;;;;;16.50;6.47;;;;;;;0.82;99.85;96695.75;5019597;28;20549;-68
2023/01/21 11:20:58;;;;;;;19.20;7.47;;;;;;;0.77;99.27;96697.84;5018862;28;20209;-68
2023/01/21 11:23:28;;;;;;;15.77;6.03;;;;;;;0.62;97.93;96693.75;5017456;28;20317;-67
2023/01/21 11:26:04;;;;;;;23.83;7.80;;;;;;;0.79;96.63;96700.31;5018593;28;20202;-68
2023/01/21 11:28:30;;;;;;;18.87;7.10;;;;;;;0.85;95.99;96697.31;5018140;28;20232;-68
2023/01/21 11:31:14;;;;;;;17.13;6.07;;;;;;;0.60;96.54;96692.19;5017620;28;20205;-68
2023/01/21 11:33:42;;;;;;;15.87;6.63;;;;;;;0.43;99.69;96699.47;5013724;28;20205;-68
2023/01/21 11:36:12;;;;;;;15.77;6.43;;;;;;;0.56;99.89;96700.28;5018642;28;20225;-68